Terminal Aerodrome Forecast
Issued by NWS Upton, NY

Home | Current Version | Previous Version | Text Only | Print | Product List | Glossary On
Versions: 1 2 3 4 5 6 7 8 9 10 11 12 13 14 15 16 17 18 19 20 21 22 23 24 25 26 27 28 29 30
000
FTUS41 KOKX 290845 AAA
TAFEWR
TAF AMD
KEWR 290845Z 2909/3012 07009KT P6SM -RA SCT015 OVC045
     FM291300 07007KT 5SM -RA BR BKN015 OVC035
      TEMPO 2916/2917 2SM SHRA BR
     FM291700 08006KT 5SM -DZ BR OVC015
     FM292000 11006KT 5SM -DZ BR OVC015
     FM300400 11004KT 5SM BR OVC009
     FM300600 13004KT 5SM BR OVC007=

USA.gov is the U.S. government's official web portal to all federal, state and local government web resources and services.